KBLM

Monmouth Executive Airport

Belmar/Farmingdale, New Jersey, USA
METAR KBLM 172056Z AUTO 09006KT 10SM SCT120 03/M03 A3028 RMK AO2 PRESFR SLP259 6//// T00281033 58022
Observed Flight Rules
Feb-17 @ 20:56 UTC (41 minutes ago) Visual Flight Rules
Wind Visibility Clouds
90° at 6 knots 10 miles
  • Scattered at 12,000' AGL
Temperatures Readings
Current 3°C / 37°F
Dewpoint -3°C / 27°F
Humidity 65%
Altimeter 30.28" Hg
Pressure 1025.9 hPa
Elevation 48
METAR KBLM 172056Z AUTO 09006KT 10SM SCT120 03/M03 A3028 RMK AO2 PRESFR SLP259 6//// T00281033 58022
Observed Flight Rules
Feb-17 @ 20:56 UTC
(41 minutes ago)
VFR
Wind Visibility
90° at 6 knots 10 miles
Clouds
  • Scattered at 12,000' AGL
Temperature Dewpoint
3°C / 37°F -3°C / 27°F
Humidity Altimeter Pressure
65% 30.28" Hg 1025.9 hPa